createdAt,value
2022-08-05T00:02:07.731Z,3.58
2022-08-05T00:04:57.328Z,3.70
2022-08-05T00:07:59.799Z,4.10
2022-08-05T00:10:47.303Z,7.70
2022-08-05T00:13:39.314Z,4.63
2022-08-05T00:16:35.700Z,3.58
2022-08-05T00:19:24.692Z,3.45
2022-08-05T00:22:11.391Z,3.42
2022-08-05T00:24:58.001Z,7.68
2022-08-05T00:27:43.942Z,3.72
2022-08-05T00:30:32.111Z,4.63
2022-08-05T00:34:56.487Z,3.13
2022-08-05T00:37:11.836Z,10.82
2022-08-05T00:39:37.063Z,4.43
2022-08-05T00:42:36.795Z,3.03
2022-08-05T00:45:37.875Z,2.97
2022-08-05T00:48:27.498Z,3.50
2022-08-05T00:51:51.178Z,3.47
2022-08-05T00:54:22.758Z,4.80
2022-08-05T00:57:14.358Z,6.22
2022-08-05T01:00:00.289Z,4.78
2022-08-05T01:02:46.199Z,6.03
2022-08-05T01:05:31.804Z,2.97
2022-08-05T01:08:41.181Z,3.75
2022-08-05T01:11:37.028Z,4.30
2022-08-05T01:14:47.942Z,4.57
2022-08-05T01:17:44.044Z,4.45
2022-08-05T01:20:50.857Z,2.85
2022-08-05T01:24:01.713Z,7.15
2022-08-05T01:27:32.978Z,3.10
2022-08-05T01:30:19.266Z,2.83
2022-08-05T01:33:25.453Z,3.63
2022-08-05T01:36:16.918Z,5.85
2022-08-05T01:39:06.933Z,7.28
2022-08-05T01:41:55.950Z,2.60
2022-08-05T01:44:45.796Z,6.63
2022-08-05T01:47:43.180Z,3.95
2022-08-05T01:50:38.592Z,5.35
2022-08-05T01:53:54.940Z,3.05
2022-08-05T01:58:18.883Z,2.65
2022-08-05T01:59:47.286Z,7.78
2022-08-05T02:02:36.749Z,2.72
2022-08-05T02:05:36.575Z,2.65
2022-08-05T02:08:30.691Z,2.70
2022-08-05T02:11:23.647Z,5.25
2022-08-05T02:14:14.711Z,2.88
2022-08-05T02:17:16.736Z,5.15
2022-08-05T02:20:22.121Z,4.13
2022-08-05T02:23:10.815Z,3.63
2022-08-05T02:26:00.331Z,3.60
2022-08-05T02:28:49.037Z,5.65
2022-08-05T02:31:37.093Z,3.00
2022-08-05T02:34:24.249Z,4.10
2022-08-05T02:37:14.918Z,4.25
2022-08-05T02:40:03.459Z,2.33
2022-08-05T02:42:53.019Z,4.63
2022-08-05T02:45:52.149Z,1.92
2022-08-05T02:48:40.124Z,3.22
2022-08-05T02:52:02.841Z,5.57
2022-08-05T02:54:41.348Z,5.60
2022-08-05T02:58:20.088Z,2.55
2022-08-05T06:07:12.931Z,3.15
2022-08-05T06:10:00.588Z,5.38
2022-08-05T06:12:49.116Z,3.10
2022-08-05T06:16:29.829Z,1.70
2022-08-05T06:18:41.626Z,7.53
2022-08-05T06:21:36.690Z,8.57
2022-08-05T06:24:27.323Z,4.47
2022-08-05T06:27:17.174Z,5.75
2022-08-05T06:30:21.196Z,5.80
2022-08-05T06:33:10.772Z,2.15
2022-08-05T06:36:08.240Z,6.43
2022-08-05T06:38:56.370Z,3.95
2022-08-05T06:41:42.995Z,6.68
2022-08-05T06:44:31.416Z,3.20
2022-08-05T06:48:11.488Z,2.72
2022-08-05T06:50:24.994Z,2.35
2022-08-05T06:53:22.516Z,3.38
2022-08-05T06:59:15.039Z,4.72
2022-08-05T07:02:00.873Z,6.55
2022-08-05T07:04:47.364Z,5.35
2022-08-05T07:07:35.393Z,4.32
2022-08-05T07:10:30.474Z,4.55
2022-08-05T07:13:57.161Z,2.30
2022-08-05T07:18:00.620Z,3.38
2022-08-05T07:23:02.835Z,5.70
2022-08-05T07:25:55.907Z,7.32
2022-08-05T07:28:42.774Z,6.03
2022-08-05T07:31:40.946Z,5.03
2022-08-05T07:34:35.252Z,3.70
2022-08-05T07:37:23.238Z,3.38
2022-08-05T07:40:26.727Z,7.15
2022-08-05T07:43:20.834Z,2.75
2022-08-05T07:46:06.980Z,3.10
2022-08-05T07:49:10.731Z,5.47
2022-08-05T07:51:56.736Z,5.45
2022-08-05T07:54:49.092Z,15.10
2022-08-05T07:57:41.837Z,4.63
2022-08-05T08:00:41.778Z,2.65
2022-08-05T08:03:44.596Z,1.50
2022-08-05T08:06:31.254Z,2.10
2022-08-05T08:09:16.940Z,7.30
2022-08-05T08:12:14.641Z,4.07
2022-08-05T08:15:15.404Z,5.70
2022-08-05T08:18:03.547Z,2.95
2022-08-05T08:21:02.289Z,3.22
2022-08-05T08:24:01.501Z,3.65
2022-08-05T08:26:50.894Z,4.25
2022-08-05T08:30:06.137Z,6.13
2022-08-05T08:32:43.940Z,6.60
2022-08-05T08:35:35.012Z,5.05
2022-08-05T08:38:35.108Z,5.90
2022-08-05T08:41:25.924Z,3.25
2022-08-05T08:45:19.091Z,3.33
2022-08-05T08:48:06.932Z,5.57
2022-08-05T08:51:07.709Z,12.30
2022-08-05T08:53:44.473Z,7.75
2022-08-05T08:56:32.294Z,9.02
2022-08-05T08:59:20.773Z,2.00
2022-08-05T09:02:08.700Z,3.78
2022-08-05T09:05:16.023Z,3.55
2022-08-05T09:08:00.863Z,6.07
2022-08-05T09:10:47.062Z,2.70
2022-08-05T09:13:50.750Z,2.40
2022-08-05T09:16:41.188Z,8.02
2022-08-05T09:19:36.414Z,3.28
2022-08-05T09:22:32.095Z,2.00
2022-08-05T09:25:24.340Z,3.95
2022-08-05T09:28:32.629Z,5.50
2022-08-05T09:31:44.023Z,2.90
2022-08-05T09:34:26.093Z,4.03
2022-08-05T09:38:17.424Z,5.47
2022-08-05T09:40:51.814Z,2.65
2022-08-05T09:43:40.951Z,6.63
2022-08-05T09:46:33.383Z,5.47
2022-08-05T09:49:54.862Z,4.65
2022-08-05T09:52:36.190Z,10.95
2022-08-05T09:55:56.449Z,3.67
2022-08-05T09:58:42.542Z,3.05
2022-08-05T10:01:32.267Z,3.42
2022-08-05T10:04:18.781Z,6.55
2022-08-05T10:07:21.073Z,2.45
2022-08-05T10:10:28.302Z,2.95
2022-08-05T10:13:27.565Z,7.47
2022-08-05T10:16:37.685Z,3.53
2022-08-05T10:19:31.887Z,5.35
2022-08-05T10:22:35.116Z,3.10
2022-08-05T10:25:24.373Z,1.50
2022-08-05T10:28:17.056Z,2.25
2022-08-05T10:32:47.765Z,4.68
2022-08-05T10:34:11.303Z,3.08
2022-08-05T10:36:57.508Z,5.00
2022-08-05T10:40:03.218Z,1.67
2022-08-05T10:42:54.208Z,3.63
2022-08-05T10:45:42.346Z,1.95
2022-08-05T10:48:57.318Z,7.05
2022-08-05T10:51:57.669Z,3.30
2022-08-05T10:55:05.203Z,3.90
2022-08-05T10:58:21.185Z,4.13
2022-08-05T11:01:07.704Z,5.38
2022-08-05T11:04:17.642Z,4.78
2022-08-05T11:07:09.236Z,1.35
2022-08-05T11:10:03.679Z,3.13
2022-08-05T11:12:58.353Z,0.90
2022-08-05T11:16:00.662Z,8.73
2022-08-05T11:18:48.226Z,5.38
2022-08-05T11:21:40.971Z,5.53
2022-08-05T11:24:35.658Z,9.27
2022-08-05T11:27:51.524Z,3.13
2022-08-05T11:30:58.495Z,6.18
2022-08-05T11:33:51.698Z,8.35
2022-08-05T11:36:52.984Z,4.30
2022-08-05T11:40:00.570Z,4.55
2022-08-05T11:42:49.916Z,3.17
2022-08-05T11:46:15.004Z,8.13
2022-08-05T11:48:54.892Z,16.20
2022-08-05T11:51:49.466Z,10.55
2022-08-05T11:54:38.283Z,7.47
2022-08-05T11:58:08.038Z,8.45
2022-08-05T12:14:43.307Z,6.13
2022-08-05T12:18:03.265Z,14.15
2022-08-05T12:20:41.879Z,5.80
2022-08-05T12:23:27.951Z,12.50
2022-08-05T12:26:15.295Z,5.65
2022-08-05T12:29:01.359Z,4.53
2022-08-05T12:31:55.320Z,3.35
2022-08-05T12:34:43.211Z,5.30
2022-08-05T12:37:30.081Z,5.28
2022-08-05T12:40:26.544Z,1.70
2022-08-05T12:43:20.606Z,4.05
2022-08-05T12:46:07.276Z,3.58
2022-08-05T12:49:13.588Z,4.35
2022-08-05T12:52:12.629Z,1.10
2022-08-05T12:55:18.218Z,10.57
2022-08-05T12:58:48.952Z,4.13
2022-08-05T13:02:01.237Z,2.20
2022-08-05T13:04:21.851Z,3.70
2022-08-05T13:07:17.377Z,3.30
2022-08-05T13:10:19.900Z,2.67
2022-08-05T13:13:06.763Z,4.72
2022-08-05T13:15:54.706Z,3.75
2022-08-05T13:18:55.265Z,1.10
2022-08-05T13:21:52.320Z,6.75
2022-08-05T13:24:57.620Z,2.60
2022-08-05T13:27:50.278Z,4.15
2022-08-05T13:30:39.228Z,3.85
2022-08-05T13:34:21.361Z,3.30
2022-08-05T13:36:31.091Z,5.50
2022-08-05T13:40:13.055Z,2.90
2022-08-05T13:42:23.391Z,4.82
2022-08-05T13:45:12.106Z,7.30
2022-08-05T13:48:09.954Z,5.43
2022-08-05T13:51:13.662Z,6.13
2022-08-05T13:53:59.940Z,5.75
2022-08-05T13:56:50.947Z,3.60
2022-08-05T13:59:37.703Z,3.53
2022-08-05T14:02:43.322Z,1.30
2022-08-05T14:05:48.220Z,8.40
2022-08-05T14:08:35.300Z,7.38
2022-08-05T14:11:22.053Z,4.78
2022-08-05T14:14:08.895Z,7.38
2022-08-05T14:16:55.367Z,3.50
2022-08-05T14:19:54.600Z,4.95
2022-08-05T14:22:50.241Z,1.42
2022-08-05T14:25:36.165Z,1.92
2022-08-05T14:28:31.308Z,3.45
2022-08-05T14:32:03.751Z,6.10
2022-08-05T14:34:23.690Z,3.13
2022-08-05T14:37:13.301Z,10.40
2022-08-05T14:39:59.876Z,5.68
2022-08-05T14:42:45.959Z,1.15
2022-08-05T14:45:31.491Z,3.13
2022-08-05T14:48:33.234Z,5.45
2022-08-05T14:51:20.052Z,5.65
2022-08-05T14:54:26.637Z,10.13
2022-08-05T14:57:13.709Z,4.93
2022-08-05T14:59:59.503Z,6.18
2022-08-05T15:02:46.216Z,6.05
2022-08-05T15:06:08.126Z,2.33
2022-08-05T15:09:01.279Z,5.82
2022-08-05T15:11:52.885Z,2.40
2022-08-05T15:14:42.253Z,6.13
2022-08-05T15:17:47.373Z,8.38
2022-08-05T15:20:37.262Z,11.73
2022-08-05T15:23:23.726Z,10.68
2022-08-05T15:26:09.572Z,4.95
2022-08-05T15:28:55.459Z,9.30
2022-08-05T15:31:41.207Z,4.13
2022-08-05T15:34:33.087Z,12.05
2022-08-05T15:38:08.419Z,8.77
2022-08-05T15:40:59.097Z,4.72
2022-08-05T15:43:31.154Z,4.32
2022-08-05T15:46:31.873Z,13.60
2022-08-05T15:49:26.220Z,11.00
2022-08-05T15:52:51.618Z,13.85
2022-08-05T15:56:03.071Z,11.05
2022-08-05T15:58:37.191Z,7.95
2022-08-05T16:01:29.305Z,5.25
2022-08-05T16:04:15.407Z,6.50
2022-08-05T16:07:04.257Z,3.83
2022-08-05T16:09:51.722Z,5.95
2022-08-05T16:12:40.176Z,9.95
2022-08-05T16:15:32.668Z,8.45
2022-08-05T16:18:20.205Z,10.43
2022-08-05T16:21:14.918Z,5.80
2022-08-05T16:24:03.469Z,9.07
2022-08-05T16:27:00.508Z,6.55
2022-08-05T16:29:50.285Z,12.55
2022-08-05T16:32:36.910Z,4.75
2022-08-05T16:35:27.986Z,8.27
2022-08-05T16:38:25.423Z,3.92
2022-08-05T16:42:12.259Z,7.63
2022-08-05T16:44:21.099Z,8.32
2022-08-05T16:47:24.671Z,6.38
2022-08-05T16:50:17.970Z,6.10
2022-08-05T16:53:12.273Z,10.20
2022-08-05T16:55:58.688Z,6.65
2022-08-05T16:58:44.641Z,12.13
2022-08-05T17:01:52.999Z,10.40
2022-08-05T17:04:36.483Z,9.40
2022-08-05T17:07:43.609Z,6.38
2022-08-05T17:10:32.093Z,23.27
2022-08-05T17:13:21.311Z,19.02
2022-08-05T17:16:33.451Z,13.65
2022-08-05T17:19:21.450Z,12.98
2022-08-05T17:22:07.158Z,8.05
2022-08-05T17:24:56.844Z,8.77
2022-08-05T17:27:44.269Z,10.65
2022-08-05T17:30:30.091Z,9.88
2022-08-05T17:33:16.164Z,7.95
2022-08-05T17:36:07.465Z,9.77
2022-08-05T17:42:20.438Z,8.48
2022-08-05T17:44:50.899Z,5.57
2022-08-05T17:47:37.867Z,6.85
2022-08-05T17:50:28.234Z,6.85
2022-08-05T17:53:15.875Z,10.98
2022-08-05T17:56:06.642Z,10.77
2022-08-05T17:58:53.450Z,10.38
2022-08-05T18:01:49.579Z,17.20
2022-08-05T18:04:36.318Z,8.80
2022-08-05T18:07:41.131Z,8.75
2022-08-05T18:10:28.105Z,9.65
2022-08-05T18:13:17.943Z,7.10
2022-08-05T18:16:04.914Z,9.35
2022-08-05T18:18:50.872Z,9.52
2022-08-05T18:22:08.499Z,15.07
2022-08-05T18:24:42.507Z,15.05
2022-08-05T18:27:28.382Z,12.07
2022-08-05T18:30:14.686Z,13.57
2022-08-05T18:33:01.263Z,11.07
2022-08-05T18:36:00.981Z,11.43
2022-08-05T18:38:49.531Z,13.30
2022-08-05T18:42:00.543Z,13.05
2022-08-05T18:44:49.447Z,10.75
2022-08-05T18:47:42.255Z,10.38
2022-08-05T18:50:46.984Z,8.90
2022-08-05T18:53:34.713Z,11.10
2022-08-05T18:56:29.330Z,12.43
2022-08-05T18:59:44.113Z,10.85
2022-08-05T19:02:27.769Z,9.50
2022-08-05T19:06:11.039Z,12.77
2022-08-05T19:08:21.651Z,10.20
2022-08-05T19:11:07.856Z,9.15
2022-08-05T19:14:00.773Z,11.93
2022-08-05T19:16:47.771Z,9.52
2022-08-05T19:19:33.395Z,8.52
2022-08-05T19:22:22.778Z,12.13
2022-08-05T19:28:16.828Z,8.50
2022-08-05T19:31:05.875Z,8.73
2022-08-05T19:33:56.462Z,9.95
2022-08-05T19:36:43.451Z,8.45
2022-08-05T19:39:45.568Z,11.05
2022-08-05T19:42:36.881Z,9.80
2022-08-05T19:45:25.594Z,9.10
2022-08-05T19:48:14.260Z,14.35
2022-08-05T19:51:00.375Z,8.00
2022-08-05T19:54:04.999Z,9.55
2022-08-05T19:56:51.997Z,8.98
2022-08-05T19:59:55.339Z,9.20
2022-08-05T20:02:46.486Z,11.93
2022-08-05T20:05:50.141Z,13.05
2022-08-05T20:08:36.633Z,13.52
2022-08-05T20:11:24.684Z,16.10
2022-08-05T20:14:14.413Z,17.83
2022-08-05T20:17:06.475Z,22.77
2022-08-05T20:19:56.693Z,27.33
2022-08-05T20:22:43.317Z,37.40
2022-08-05T20:25:33.866Z,27.15
2022-08-05T20:28:25.572Z,18.53
2022-08-05T20:31:13.031Z,21.42
2022-08-05T20:33:58.966Z,26.05
2022-08-05T20:36:44.713Z,29.00
2022-08-05T20:39:36.616Z,18.33
2022-08-05T20:42:22.873Z,21.40
2022-08-05T20:45:13.969Z,21.23
2022-08-05T20:48:00.357Z,21.45
2022-08-05T20:50:47.015Z,21.10
2022-08-05T20:53:36.828Z,22.55
2022-08-05T20:56:27.653Z,27.92
2022-08-05T20:59:26.226Z,22.08
2022-08-05T21:02:12.951Z,28.30
2022-08-05T21:05:05.736Z,26.83
2022-08-05T21:07:55.186Z,23.45
2022-08-05T21:10:48.476Z,26.02
2022-08-05T21:16:40.947Z,27.55
2022-08-05T21:19:26.799Z,33.15
2022-08-05T21:22:14.724Z,30.15
2022-08-05T21:25:04.367Z,31.80
2022-08-05T21:27:52.966Z,29.45
2022-08-05T21:30:40.052Z,31.80
2022-08-05T21:33:37.119Z,33.92
2022-08-05T21:36:30.057Z,30.40
2022-08-05T21:39:17.003Z,29.60
2022-08-05T21:42:31.004Z,27.30
2022-08-05T21:45:25.241Z,22.27
2022-08-05T21:48:24.475Z,28.10
2022-08-05T21:52:16.637Z,31.27
2022-08-05T21:54:16.401Z,25.13
2022-08-05T21:57:31.288Z,31.10
2022-08-05T22:00:18.561Z,24.58
2022-08-05T22:03:04.935Z,24.92
2022-08-05T22:05:50.894Z,24.40
2022-08-05T22:08:36.791Z,23.42
2022-08-05T22:11:35.182Z,23.25
2022-08-05T22:14:35.793Z,21.35
2022-08-05T22:17:24.309Z,23.77
2022-08-05T22:20:14.737Z,28.00
2022-08-05T22:23:21.366Z,21.08
2022-08-05T22:26:34.211Z,23.52
2022-08-05T22:29:26.244Z,26.45
2022-08-05T22:32:12.223Z,23.20
2022-08-05T22:35:03.788Z,22.88
2022-08-05T22:37:58.013Z,21.90
2022-08-05T22:40:50.023Z,15.60
2022-08-05T22:43:41.344Z,18.38
2022-08-05T22:46:27.313Z,15.02
2022-08-05T22:50:17.596Z,18.10
2022-08-05T22:52:22.905Z,19.88
2022-08-05T22:55:21.339Z,16.05
2022-08-05T22:58:07.500Z,20.33
2022-08-05T23:00:57.548Z,21.02
2022-08-05T23:03:58.000Z,17.83
2022-08-05T23:06:45.361Z,19.45
2022-08-05T23:09:57.166Z,14.32
2022-08-05T23:12:38.226Z,14.90
2022-08-05T23:15:29.436Z,16.10
2022-08-05T23:18:20.578Z,14.77
2022-08-05T23:21:10.084Z,13.02
2022-08-05T23:23:56.347Z,13.00
2022-08-05T23:26:42.343Z,17.77
2022-08-05T23:29:29.849Z,15.70
2022-08-05T23:32:22.696Z,10.10
2022-08-05T23:35:09.459Z,11.57
2022-08-05T23:37:55.344Z,14.35
2022-08-05T23:40:42.245Z,11.27
2022-08-05T23:43:37.261Z,14.85
2022-08-05T23:46:41.180Z,12.50
2022-08-05T23:49:36.028Z,17.48
2022-08-05T23:52:29.391Z,9.98
2022-08-05T23:55:16.556Z,12.07
2022-08-05T23:58:03.604Z,6.85
